createdAt,value
2018-07-13T00:00:50.698Z,16.63
2018-07-13T00:01:50.758Z,16.54
2018-07-13T00:02:50.816Z,16.63
2018-07-13T00:03:50.876Z,16.59
2018-07-13T00:04:50.938Z,16.57
2018-07-13T00:05:50.997Z,16.52
2018-07-13T00:06:51.057Z,16.48
2018-07-13T00:07:51.119Z,16.47
2018-07-13T00:08:51.176Z,16.51
2018-07-13T00:09:51.237Z,16.51
2018-07-13T00:10:51.296Z,16.48
2018-07-13T00:11:51.357Z,16.50
2018-07-13T00:12:51.416Z,16.48
2018-07-13T00:13:51.476Z,16.51
2018-07-13T00:14:51.535Z,16.60
2018-07-13T00:15:51.596Z,16.62
2018-07-13T00:16:51.656Z,16.62
2018-07-13T00:17:51.967Z,16.52
2018-07-13T00:18:51.774Z,16.59
2018-07-13T00:19:51.834Z,16.48
2018-07-13T00:20:51.895Z,16.44
2018-07-13T00:21:51.964Z,16.55
2018-07-13T00:22:52.016Z,16.59
2018-07-13T00:23:52.074Z,16.47
2018-07-13T00:24:52.133Z,16.54
2018-07-13T00:25:52.204Z,16.42
2018-07-13T00:26:52.252Z,16.48
2018-07-13T00:27:52.313Z,16.41
2018-07-13T00:28:52.393Z,16.34
2018-07-13T00:29:52.432Z,16.27
2018-07-13T00:30:52.492Z,16.26
2018-07-13T00:31:52.552Z,16.27
2018-07-13T00:32:52.612Z,16.23
2018-07-13T00:33:52.672Z,16.17
2018-07-13T00:34:52.732Z,16.26
2018-07-13T00:35:52.793Z,16.17
2018-07-13T00:36:52.850Z,16.23
2018-07-13T00:37:52.910Z,16.27
2018-07-13T00:38:52.970Z,16.25
2018-07-13T00:39:53.031Z,16.30
2018-07-13T00:40:53.090Z,16.25
2018-07-13T00:41:53.149Z,16.32
2018-07-13T00:42:53.208Z,16.29
2018-07-13T00:43:53.269Z,16.37
2018-07-13T00:44:53.330Z,16.36
2018-07-13T00:45:53.388Z,16.34
2018-07-13T00:46:53.456Z,16.33
2018-07-13T00:47:53.508Z,16.29
2018-07-13T00:48:53.568Z,16.17
2018-07-13T00:49:53.629Z,16.14
2018-07-13T00:50:53.688Z,16.16
2018-07-13T00:51:53.751Z,16.22
2018-07-13T00:52:53.809Z,16.17
2018-07-13T00:53:53.865Z,16.17
2018-07-13T00:54:53.925Z,16.06
2018-07-13T00:55:53.985Z,16.07
2018-07-13T00:56:54.046Z,16.01
2018-07-13T00:57:54.104Z,16.01
2018-07-13T00:58:54.164Z,16.01
2018-07-13T00:59:54.224Z,15.92
2018-07-13T01:00:54.284Z,15.89
2018-07-13T01:01:54.342Z,15.81
2018-07-13T01:02:54.402Z,15.89
2018-07-13T01:03:54.463Z,15.78
2018-07-13T01:04:54.522Z,15.71
2018-07-13T01:05:54.582Z,15.77
2018-07-13T01:06:54.644Z,15.68
2018-07-13T01:07:54.702Z,15.66
2018-07-13T01:08:54.762Z,15.59
2018-07-13T01:09:54.821Z,15.52
2018-07-13T01:10:54.881Z,15.53
2018-07-13T01:11:54.941Z,15.56
2018-07-13T01:12:55.004Z,15.52
2018-07-13T01:13:55.060Z,15.51
2018-07-13T01:14:55.120Z,15.52
2018-07-13T01:15:55.180Z,15.51
2018-07-13T01:16:55.240Z,15.43
2018-07-13T01:17:55.298Z,15.52
2018-07-13T01:18:55.358Z,15.58
2018-07-13T01:19:55.418Z,15.67
2018-07-13T01:20:55.478Z,15.77
2018-07-13T01:21:55.541Z,15.81
2018-07-13T01:22:55.597Z,15.80
2018-07-13T01:23:55.657Z,15.85
2018-07-13T01:24:55.717Z,15.80
2018-07-13T01:25:55.776Z,15.85
2018-07-13T01:26:55.837Z,15.81
2018-07-13T01:27:55.895Z,15.58
2018-07-13T01:28:55.958Z,15.52
2018-07-13T01:29:56.014Z,15.46
2018-07-13T01:30:56.075Z,15.40
2018-07-13T01:31:56.134Z,15.44
2018-07-13T01:32:56.193Z,15.33
2018-07-13T01:33:56.252Z,15.30
2018-07-13T01:34:56.311Z,15.38
2018-07-13T01:35:56.371Z,15.35
2018-07-13T01:36:56.431Z,15.23
2018-07-13T01:37:56.490Z,15.28
2018-07-13T01:38:56.550Z,15.28
2018-07-13T01:39:56.609Z,15.33
2018-07-13T01:40:56.669Z,15.27
2018-07-13T01:41:56.729Z,15.23
2018-07-13T01:42:56.787Z,15.38
2018-07-13T01:43:56.847Z,15.23
2018-07-13T01:44:56.908Z,15.33
2018-07-13T01:45:57.216Z,15.37
2018-07-13T01:46:57.026Z,15.35
2018-07-13T01:47:57.085Z,15.38
2018-07-13T01:48:57.145Z,15.38
2018-07-13T01:49:57.203Z,15.30
2018-07-13T01:50:57.264Z,15.28
2018-07-13T01:51:57.323Z,15.16
2018-07-13T01:52:57.384Z,15.05
2018-07-13T01:53:57.442Z,15.13
2018-07-13T01:54:57.501Z,15.09
2018-07-13T01:55:57.576Z,15.13
2018-07-13T01:56:57.620Z,15.13
2018-07-13T01:57:57.678Z,15.11
2018-07-13T01:58:57.738Z,15.13
2018-07-13T01:59:57.798Z,15.07
2018-07-13T02:00:57.857Z,15.07
2018-07-13T02:01:58.071Z,15.05
2018-07-13T02:02:57.979Z,15.11
2018-07-13T02:03:58.035Z,15.12
2018-07-13T02:04:58.095Z,15.13
2018-07-13T02:05:58.153Z,15.07
2018-07-13T02:06:58.212Z,14.91
2018-07-13T02:07:58.272Z,14.90
2018-07-13T02:08:58.332Z,14.98
2018-07-13T02:09:58.390Z,15.01
2018-07-13T02:10:58.451Z,15.28
2018-07-13T02:11:58.509Z,15.30
2018-07-13T02:12:58.570Z,15.27
2018-07-13T02:13:58.629Z,15.37
2018-07-13T02:14:58.687Z,15.38
2018-07-13T02:15:58.751Z,15.30
2018-07-13T02:16:58.805Z,15.03
2018-07-13T02:17:58.871Z,14.98
2018-07-13T02:18:58.923Z,14.91
2018-07-13T02:19:58.983Z,14.97
2018-07-13T02:20:59.043Z,14.95
2018-07-13T02:21:59.101Z,14.98
2018-07-13T02:22:59.160Z,14.95
2018-07-13T02:23:59.220Z,14.85
2018-07-13T02:24:59.279Z,14.93
2018-07-13T02:25:59.339Z,14.94
2018-07-13T02:26:59.397Z,15.01
2018-07-13T02:27:59.458Z,14.98
2018-07-13T02:28:59.518Z,14.91
2018-07-13T02:29:59.574Z,15.13
2018-07-13T02:30:59.634Z,15.19
2018-07-13T02:31:59.695Z,15.23
2018-07-13T02:34:02.489Z,15.27
2018-07-13T02:34:59.870Z,15.22
2018-07-13T02:35:59.931Z,15.20
2018-07-13T02:37:03.827Z,15.15
2018-07-13T02:38:00.049Z,15.09
2018-07-13T02:39:00.141Z,14.98
2018-07-13T02:40:00.167Z,14.79
2018-07-13T02:41:00.226Z,14.83
2018-07-13T02:42:00.285Z,14.87
2018-07-13T02:43:00.344Z,14.93
2018-07-13T02:44:00.407Z,14.93
2018-07-13T02:45:00.463Z,14.87
2018-07-13T02:46:00.521Z,14.85
2018-07-13T02:47:00.582Z,14.80
2018-07-13T02:48:00.640Z,14.71
2018-07-13T02:49:00.699Z,14.66
2018-07-13T02:50:00.758Z,14.54
2018-07-13T02:51:00.821Z,14.60
2018-07-13T02:52:00.876Z,14.78
2018-07-13T02:53:00.951Z,14.91
2018-07-13T02:54:01.003Z,14.82
2018-07-13T02:55:01.054Z,14.83
2018-07-13T02:56:01.130Z,14.91
2018-07-13T02:57:01.173Z,14.85
2018-07-13T02:58:01.231Z,14.80
2018-07-13T02:59:01.290Z,14.69
2018-07-13T03:00:01.359Z,14.56
2018-07-13T03:01:01.410Z,14.60
2018-07-13T03:02:01.469Z,14.67
2018-07-13T03:03:01.526Z,14.60
2018-07-13T03:04:01.586Z,14.60
2018-07-13T03:05:01.645Z,14.61
2018-07-13T03:06:01.703Z,14.59
2018-07-13T03:07:01.763Z,14.60
2018-07-13T03:08:01.823Z,14.52
2018-07-13T03:09:01.881Z,14.49
2018-07-13T03:10:01.946Z,14.52
2018-07-13T03:11:02.000Z,14.49
2018-07-13T03:12:02.058Z,14.52
2018-07-13T03:13:02.120Z,14.41
2018-07-13T03:14:02.176Z,14.41
2018-07-13T03:15:02.235Z,14.45
2018-07-13T03:16:02.295Z,14.42
2018-07-13T03:17:02.354Z,14.44
2018-07-13T03:18:02.418Z,14.44
2018-07-13T03:19:02.724Z,14.42
2018-07-13T03:20:02.530Z,14.46
2018-07-13T03:21:02.590Z,14.46
2018-07-13T03:22:02.689Z,14.46
2018-07-13T03:23:02.707Z,14.63
2018-07-13T03:24:02.766Z,14.59
2018-07-13T03:25:02.825Z,14.45
2018-07-13T03:26:02.885Z,14.54
2018-07-13T03:27:02.943Z,14.52
2018-07-13T03:28:03.002Z,14.46
2018-07-13T03:29:03.062Z,14.41
2018-07-13T03:30:03.120Z,14.42
2018-07-13T03:31:03.181Z,14.41
2018-07-13T03:32:03.252Z,14.49
2018-07-13T03:33:03.298Z,14.56
2018-07-13T03:34:03.360Z,14.46
2018-07-13T03:35:03.416Z,14.45
2018-07-13T03:36:03.474Z,14.56
2018-07-13T03:37:03.533Z,14.54
2018-07-13T03:38:03.592Z,14.48
2018-07-13T03:39:03.650Z,14.60
2018-07-13T03:40:03.710Z,14.61
2018-07-13T03:41:03.769Z,14.60
2018-07-13T03:42:03.827Z,14.60
2018-07-13T03:43:03.886Z,14.56
2018-07-13T03:44:04.005Z,14.52
2018-07-13T03:45:04.255Z,14.53
2018-07-13T03:46:04.063Z,14.60
2018-07-13T03:47:04.124Z,14.57
2018-07-13T03:48:04.181Z,14.48
2018-07-13T03:49:04.240Z,14.63
2018-07-13T03:50:04.299Z,14.56
2018-07-13T03:51:04.357Z,14.57
2018-07-13T03:52:04.417Z,14.57
2018-07-13T03:53:04.475Z,14.46
2018-07-13T03:54:04.539Z,14.63
2018-07-13T03:55:04.592Z,14.46
2018-07-13T03:56:04.652Z,14.53
2018-07-13T03:57:04.712Z,14.49
2018-07-13T03:58:04.770Z,14.48
2018-07-13T03:59:04.828Z,14.59
2018-07-13T04:00:04.888Z,14.53
2018-07-13T04:01:04.947Z,14.44
2018-07-13T04:02:05.005Z,14.53
2018-07-13T04:03:05.065Z,14.46
2018-07-13T04:04:05.124Z,14.48
2018-07-13T04:05:05.184Z,14.49
2018-07-13T04:06:05.392Z,14.49
2018-07-13T04:07:05.346Z,14.57
2018-07-13T04:08:05.358Z,14.46
2018-07-13T04:09:05.419Z,14.45
2018-07-13T04:10:05.475Z,14.52
2018-07-13T04:11:05.538Z,14.60
2018-07-13T04:12:05.595Z,14.64
2018-07-13T04:13:05.654Z,14.59
2018-07-13T04:14:05.718Z,14.61
2018-07-13T04:15:05.772Z,14.60
2018-07-13T04:16:05.830Z,14.61
2018-07-13T04:17:05.889Z,14.59
2018-07-13T04:18:05.950Z,14.59
2018-07-13T04:19:06.007Z,14.46
2018-07-13T04:20:06.066Z,14.54
2018-07-13T04:21:06.376Z,14.61
2018-07-13T04:22:06.182Z,14.64
2018-07-13T04:23:06.250Z,14.66
2018-07-13T04:24:06.302Z,14.60
2018-07-13T04:25:06.360Z,14.56
2018-07-13T04:26:06.418Z,14.54
2018-07-13T04:27:06.477Z,14.64
2018-07-13T04:28:06.537Z,14.56
2018-07-13T04:29:06.596Z,14.61
2018-07-13T04:30:06.654Z,14.54
2018-07-13T04:31:06.713Z,14.61
2018-07-13T04:32:06.773Z,14.61
2018-07-13T04:33:06.832Z,14.71
2018-07-13T04:34:06.902Z,14.63
2018-07-13T04:35:06.952Z,14.71
2018-07-13T04:36:07.008Z,14.75
2018-07-13T04:37:07.071Z,14.71
2018-07-13T04:38:07.128Z,14.66
2018-07-13T04:39:07.185Z,14.67
2018-07-13T04:40:07.243Z,14.79
2018-07-13T04:41:07.330Z,14.75
2018-07-13T04:42:07.361Z,14.72
2018-07-13T04:43:07.421Z,14.72
2018-07-13T04:44:07.480Z,14.64
2018-07-13T04:45:07.539Z,14.64
2018-07-13T04:46:07.598Z,14.61
2018-07-13T04:47:07.656Z,14.78
2018-07-13T04:48:07.715Z,14.79
2018-07-13T04:49:07.776Z,14.78
2018-07-13T04:50:07.838Z,14.74
2018-07-13T04:51:07.892Z,14.75
2018-07-13T04:52:07.953Z,14.86
2018-07-13T04:53:08.012Z,14.93
2018-07-13T04:54:08.070Z,14.98
2018-07-13T04:55:08.129Z,15.01
2018-07-13T04:56:08.192Z,14.94
2018-07-13T04:57:08.254Z,14.98
2018-07-13T04:58:08.307Z,15.01
2018-07-13T04:59:08.366Z,15.09
2018-07-13T05:00:08.425Z,15.03
2018-07-13T05:01:08.484Z,15.05
2018-07-13T05:02:08.543Z,15.07
2018-07-13T05:03:08.605Z,15.12
2018-07-13T05:04:08.661Z,15.12
2018-07-13T05:05:08.721Z,15.11
2018-07-13T05:06:08.792Z,15.12
2018-07-13T05:07:08.840Z,15.12
2018-07-13T05:08:08.898Z,15.12
2018-07-13T05:09:08.958Z,15.11
2018-07-13T05:10:09.016Z,15.18
2018-07-13T05:11:09.077Z,15.12
2018-07-13T05:12:09.138Z,15.19
2018-07-13T05:13:09.196Z,15.20
2018-07-13T05:14:09.257Z,15.18
2018-07-13T05:15:09.313Z,15.23
2018-07-13T05:16:09.372Z,15.30
2018-07-13T05:17:09.432Z,15.23
2018-07-13T05:18:09.492Z,15.37
2018-07-13T05:19:09.551Z,15.37
2018-07-13T05:20:09.611Z,15.51
2018-07-13T05:21:09.758Z,15.49
2018-07-13T05:22:10.259Z,15.41
2018-07-13T05:23:10.316Z,15.48
2018-07-13T05:24:10.195Z,15.48
2018-07-13T05:25:10.374Z,15.49
2018-07-13T05:26:10.396Z,15.64
2018-07-13T05:27:10.038Z,15.67
2018-07-13T05:28:10.615Z,15.64
2018-07-13T05:29:10.146Z,15.66
2018-07-13T05:30:10.209Z,15.76
2018-07-13T05:31:10.266Z,15.76
2018-07-13T05:32:10.326Z,15.89
2018-07-13T05:33:10.387Z,15.88
2018-07-13T05:34:10.446Z,15.92
2018-07-13T05:35:10.507Z,15.92
2018-07-13T05:36:10.567Z,15.96
2018-07-13T05:37:10.628Z,15.98
2018-07-13T05:38:10.685Z,16.03
2018-07-13T05:39:10.745Z,16.08
2018-07-13T05:40:10.806Z,16.18
2018-07-13T05:41:10.867Z,16.14
2018-07-13T05:42:10.959Z,16.23
2018-07-13T05:43:10.985Z,16.26
2018-07-13T05:44:11.046Z,16.27
2018-07-13T05:45:11.106Z,16.25
2018-07-13T05:46:11.166Z,16.30
2018-07-13T05:47:11.226Z,16.34
2018-07-13T05:48:11.287Z,16.50
2018-07-13T05:49:11.347Z,16.51
2018-07-13T05:50:11.406Z,16.55
2018-07-13T05:51:11.467Z,16.57
2018-07-13T05:52:11.527Z,16.75
2018-07-13T05:53:11.590Z,16.75
2018-07-13T05:54:11.648Z,16.77
2018-07-13T05:55:11.710Z,16.85
2018-07-13T05:56:11.769Z,16.84
2018-07-13T05:57:11.830Z,16.77
2018-07-13T05:58:11.891Z,16.92
2018-07-13T05:59:12.200Z,17.02
2018-07-13T06:00:12.011Z,17.03
2018-07-13T06:01:12.073Z,17.00
2018-07-13T06:02:12.131Z,17.06
2018-07-13T06:03:12.192Z,17.10
2018-07-13T06:04:12.253Z,17.21
2018-07-13T06:05:12.314Z,17.30
2018-07-13T06:06:12.375Z,17.30
2018-07-13T06:07:12.435Z,17.36
2018-07-13T06:08:12.503Z,17.35
2018-07-13T06:09:12.557Z,17.43
2018-07-13T06:10:12.617Z,17.38
2018-07-13T06:11:12.678Z,17.47
2018-07-13T06:12:12.739Z,17.54
2018-07-13T06:13:12.800Z,17.43
2018-07-13T06:14:12.860Z,17.49
2018-07-13T06:15:12.922Z,17.51
2018-07-13T06:16:12.985Z,17.65
2018-07-13T06:17:13.048Z,17.55
2018-07-13T06:18:13.105Z,17.65
2018-07-13T06:19:13.165Z,17.63
2018-07-13T06:20:13.239Z,17.66
2018-07-13T06:21:13.289Z,17.76
2018-07-13T06:22:13.348Z,17.77
2018-07-13T06:23:13.410Z,17.84
2018-07-13T06:24:13.510Z,17.91
2018-07-13T06:25:13.783Z,17.96
2018-07-13T06:26:13.593Z,18.01
2018-07-13T06:27:13.655Z,18.05
2018-07-13T06:28:13.718Z,18.11
2018-07-13T06:29:13.778Z,18.23
2018-07-13T06:30:13.858Z,18.23
2018-07-13T06:31:13.899Z,18.32
2018-07-13T06:32:13.961Z,18.36
2018-07-13T06:33:14.022Z,18.47
2018-07-13T06:34:14.082Z,18.59
2018-07-13T06:35:14.144Z,18.62
2018-07-13T06:36:14.206Z,18.57
2018-07-13T06:37:14.268Z,18.60
2018-07-13T06:38:14.328Z,18.69
2018-07-13T06:39:14.391Z,18.71
2018-07-13T06:40:14.602Z,18.79
2018-07-13T06:41:14.513Z,18.84
2018-07-13T06:42:14.576Z,18.99
2018-07-13T06:43:14.636Z,18.87
2018-07-13T06:44:14.699Z,18.84
2018-07-13T06:45:14.761Z,18.90
2018-07-13T06:46:14.821Z,19.20
2018-07-13T06:47:14.883Z,19.31
2018-07-13T06:48:14.945Z,19.40
2018-07-13T06:49:15.008Z,19.50
2018-07-13T06:50:15.069Z,19.55
2018-07-13T06:51:15.133Z,19.67
2018-07-13T06:52:15.193Z,19.49
2018-07-13T06:53:15.257Z,19.39
2018-07-13T06:54:15.339Z,19.58
2018-07-13T06:55:15.380Z,19.53
2018-07-13T06:56:15.443Z,19.61
2018-07-13T06:57:15.507Z,19.82
2018-07-13T06:58:15.571Z,19.95
2018-07-13T06:59:15.631Z,19.95
2018-07-13T07:00:15.696Z,20.01
2018-07-13T07:01:15.758Z,19.86
2018-07-13T07:02:15.822Z,19.75
2018-07-13T07:03:15.882Z,19.97
2018-07-13T07:04:15.945Z,19.98
2018-07-13T07:05:16.008Z,19.97
2018-07-13T07:06:16.070Z,20.00
2018-07-13T07:07:16.134Z,19.97
2018-07-13T07:08:16.203Z,20.00
2018-07-13T07:09:16.262Z,20.12
2018-07-13T07:10:16.321Z,20.23
2018-07-13T07:11:16.386Z,20.08
2018-07-13T07:12:16.453Z,20.02
2018-07-13T07:13:16.512Z,20.15
2018-07-13T07:14:16.575Z,20.15
2018-07-13T07:15:16.638Z,20.20
2018-07-13T07:16:16.701Z,20.19
2018-07-13T07:17:16.764Z,20.33
2018-07-13T07:18:16.828Z,20.33
2018-07-13T07:19:16.893Z,20.34
2018-07-13T07:20:16.954Z,20.53
2018-07-13T07:21:17.018Z,20.51
2018-07-13T07:22:17.082Z,20.56
2018-07-13T07:23:17.144Z,20.69
2018-07-13T07:24:17.208Z,20.85
2018-07-13T07:25:17.271Z,20.90
2018-07-13T07:26:17.334Z,20.97
2018-07-13T07:27:17.398Z,21.05
2018-07-13T07:28:17.462Z,21.13
2018-07-13T07:29:17.525Z,21.30
2018-07-13T07:30:17.588Z,21.19
2018-07-13T07:31:17.686Z,21.24
2018-07-13T07:32:17.716Z,21.24
2018-07-13T07:33:17.780Z,21.33
2018-07-13T07:34:17.841Z,21.34
2018-07-13T07:35:17.907Z,21.36
2018-07-13T07:36:17.970Z,21.37
2018-07-13T07:37:18.033Z,21.31
2018-07-13T07:38:18.155Z,21.11
2018-07-13T07:39:18.163Z,21.03
2018-07-13T07:40:18.225Z,21.13
2018-07-13T07:41:18.289Z,21.03
2018-07-13T07:42:18.352Z,21.22
2018-07-13T07:43:18.566Z,21.27
2018-07-13T07:44:18.479Z,21.42
2018-07-13T07:45:18.543Z,21.34
2018-07-13T07:46:18.606Z,21.51
2018-07-13T07:47:18.672Z,21.43
2018-07-13T07:48:18.735Z,21.43
2018-07-13T07:49:18.805Z,21.49
2018-07-13T07:50:18.862Z,21.45
2018-07-13T07:51:18.926Z,21.45
2018-07-13T07:52:18.990Z,21.40
2018-07-13T07:53:19.055Z,21.58
2018-07-13T07:54:19.120Z,21.64
2018-07-13T07:55:19.183Z,21.70
2018-07-13T07:56:19.246Z,21.85
2018-07-13T07:57:19.321Z,21.94
2018-07-13T07:58:19.625Z,22.06
2018-07-13T07:59:19.437Z,22.06
2018-07-13T08:00:19.501Z,22.12
2018-07-13T08:01:19.564Z,22.21
2018-07-13T08:02:19.628Z,22.17
2018-07-13T08:03:19.690Z,22.33
2018-07-13T08:04:19.755Z,22.33
2018-07-13T08:05:19.819Z,22.24
2018-07-13T08:06:20.178Z,22.33
2018-07-13T08:07:20.204Z,22.23
2018-07-13T08:08:20.012Z,22.27
2018-07-13T08:09:20.074Z,22.30
2018-07-13T08:10:20.140Z,22.33
2018-07-13T08:11:20.203Z,22.36
2018-07-13T08:12:20.265Z,22.46
2018-07-13T08:13:20.330Z,22.52
2018-07-13T08:14:20.406Z,22.60
2018-07-13T08:15:20.457Z,22.66
2018-07-13T08:16:20.520Z,22.67
2018-07-13T08:17:20.585Z,22.78
2018-07-13T08:18:20.647Z,22.79
2018-07-13T08:19:20.712Z,22.74
2018-07-13T08:20:20.796Z,22.84
2018-07-13T08:21:20.839Z,22.86
2018-07-13T08:22:20.904Z,22.88
2018-07-13T08:23:20.966Z,22.85
2018-07-13T08:24:21.033Z,22.86
2018-07-13T08:25:21.095Z,22.97
2018-07-13T08:26:21.158Z,23.11
2018-07-13T08:27:21.223Z,23.22
2018-07-13T08:28:21.286Z,23.31
2018-07-13T08:29:21.349Z,23.25
2018-07-13T08:30:21.414Z,23.32
2018-07-13T08:31:21.479Z,23.37
2018-07-13T08:32:21.542Z,23.45
2018-07-13T08:33:21.605Z,23.50
2018-07-13T08:34:21.670Z,23.62
2018-07-13T08:35:21.734Z,23.74
2018-07-13T08:36:21.799Z,23.94
2018-07-13T08:37:21.862Z,23.89
2018-07-13T08:38:21.984Z,23.72
2018-07-13T08:39:21.994Z,23.78
2018-07-13T08:40:22.056Z,23.86
2018-07-13T08:41:22.121Z,23.89
2018-07-13T08:42:22.183Z,23.86
2018-07-13T08:43:22.247Z,23.90
2018-07-13T08:44:22.312Z,23.99
2018-07-13T08:45:22.376Z,24.06
2018-07-13T08:46:22.451Z,24.26
2018-07-13T08:47:22.505Z,24.31
2018-07-13T08:48:22.577Z,24.24
2018-07-13T08:49:22.634Z,24.39
2018-07-13T08:50:22.781Z,24.59
2018-07-13T08:51:22.822Z,24.70
2018-07-13T08:52:22.828Z,24.90
2018-07-13T08:53:22.893Z,24.92
2018-07-13T08:54:22.957Z,25.05
2018-07-13T08:55:23.022Z,25.29
2018-07-13T08:56:23.090Z,25.14
2018-07-13T08:57:23.152Z,25.08
2018-07-13T08:58:23.216Z,24.99
2018-07-13T08:59:23.281Z,24.67
2018-07-13T09:00:23.346Z,24.67
2018-07-13T09:01:23.412Z,24.45
2018-07-13T09:02:23.477Z,24.55
2018-07-13T09:03:23.541Z,24.86
2018-07-13T09:04:23.620Z,25.20
2018-07-13T09:05:23.922Z,25.30
2018-07-13T09:06:23.794Z,25.54
2018-07-13T09:07:23.838Z,25.57
2018-07-13T09:08:23.864Z,25.67
2018-07-13T09:09:23.930Z,25.69
2018-07-13T09:10:23.994Z,25.76
2018-07-13T09:11:24.060Z,25.85
2018-07-13T09:12:24.124Z,25.83
2018-07-13T09:13:24.189Z,25.86
2018-07-13T09:14:24.255Z,25.79
2018-07-13T09:15:24.318Z,25.69
2018-07-13T09:16:24.383Z,25.85
2018-07-13T09:17:24.450Z,25.93
2018-07-13T09:18:24.562Z,25.98
2018-07-13T09:19:24.577Z,26.09
2018-07-13T09:20:24.643Z,26.08
2018-07-13T09:21:24.709Z,26.08
2018-07-13T09:22:24.773Z,25.93
2018-07-13T09:23:24.838Z,25.98
2018-07-13T09:24:24.905Z,26.01
2018-07-13T09:25:24.969Z,26.08
2018-07-13T09:26:25.034Z,26.21
2018-07-13T09:27:25.100Z,26.13
2018-07-13T09:28:25.168Z,26.12
2018-07-13T09:29:25.234Z,26.36
2018-07-13T09:30:25.298Z,26.54
2018-07-13T09:31:25.361Z,26.51
2018-07-13T09:32:25.431Z,26.57
2018-07-13T09:33:25.495Z,26.66
2018-07-13T09:34:25.557Z,26.60
2018-07-13T09:35:25.623Z,26.68
2018-07-13T09:36:25.689Z,26.60
2018-07-13T09:37:25.757Z,26.69
2018-07-13T09:38:25.951Z,26.41
2018-07-13T09:39:25.889Z,26.53
2018-07-13T09:40:25.951Z,26.66
2018-07-13T09:41:26.167Z,26.78
2018-07-13T09:42:26.082Z,26.84
2018-07-13T09:43:26.148Z,26.87
2018-07-13T09:44:26.214Z,26.93
2018-07-13T09:45:26.282Z,26.83
2018-07-13T09:46:26.348Z,26.87
2018-07-13T09:47:26.411Z,26.90
2018-07-13T09:48:26.478Z,26.94
2018-07-13T09:49:26.544Z,27.20
2018-07-13T09:50:26.609Z,27.24
2018-07-13T09:51:26.683Z,27.39
2018-07-13T09:52:26.743Z,27.27
2018-07-13T09:53:26.812Z,27.25
2018-07-13T09:54:26.893Z,27.38
2018-07-13T09:55:26.944Z,27.46
2018-07-13T09:56:27.007Z,27.63
2018-07-13T09:57:27.073Z,27.80
2018-07-13T09:58:27.140Z,28.02
2018-07-13T09:59:27.206Z,27.76
2018-07-13T10:00:27.355Z,27.72
2018-07-13T10:01:27.340Z,27.71
2018-07-13T10:02:27.407Z,27.42
2018-07-13T10:03:27.476Z,27.39
2018-07-13T10:04:27.543Z,27.72
2018-07-13T10:05:27.611Z,28.01
2018-07-13T10:06:27.678Z,28.05
2018-07-13T10:07:27.745Z,28.24
2018-07-13T10:08:27.813Z,28.54
2018-07-13T10:09:27.881Z,28.74
2018-07-13T10:10:27.950Z,29.02
2018-07-13T10:11:28.018Z,29.10
2018-07-13T10:12:28.088Z,28.85
2018-07-13T10:13:28.225Z,29.03
2018-07-13T10:14:28.227Z,29.15
2018-07-13T10:15:28.297Z,29.12
2018-07-13T10:16:28.366Z,29.12
2018-07-13T10:17:28.436Z,28.85
2018-07-13T10:18:28.507Z,29.02
2018-07-13T10:19:28.578Z,28.42
2018-07-13T10:20:28.646Z,27.72
2018-07-13T10:21:28.718Z,27.77
2018-07-13T10:22:28.787Z,27.95
2018-07-13T10:23:28.857Z,27.93
2018-07-13T10:24:28.926Z,28.15
2018-07-13T10:25:29.000Z,28.17
2018-07-13T10:26:29.067Z,28.18
2018-07-13T10:27:29.140Z,28.21
2018-07-13T10:28:29.208Z,29.12
2018-07-13T10:29:29.279Z,29.32
2018-07-13T10:30:29.348Z,29.33
2018-07-13T10:31:29.420Z,29.17
2018-07-13T10:32:29.490Z,29.29
2018-07-13T10:33:29.561Z,29.52
2018-07-13T10:34:29.632Z,29.58
2018-07-13T10:35:29.736Z,29.73
2018-07-13T10:36:29.775Z,29.42
2018-07-13T10:37:29.847Z,29.52
2018-07-13T10:38:29.919Z,28.97
2018-07-13T10:39:29.991Z,28.46
2018-07-13T10:40:30.063Z,27.98
2018-07-13T10:41:30.135Z,27.72
2018-07-13T10:42:30.208Z,27.91
2018-07-13T10:43:30.280Z,27.91
2018-07-13T10:44:30.352Z,27.68
2018-07-13T10:45:30.423Z,27.63
2018-07-13T10:46:30.497Z,27.66
2018-07-13T10:47:30.564Z,27.71
2018-07-13T10:48:31.058Z,27.80
2018-07-13T10:49:30.706Z,28.01
2018-07-13T10:50:30.776Z,27.93
2018-07-13T10:51:30.912Z,27.88
2018-07-13T10:52:30.918Z,27.69
2018-07-13T10:53:30.987Z,27.21
2018-07-13T10:54:31.055Z,26.93
2018-07-13T10:55:31.126Z,26.32
2018-07-13T10:56:31.196Z,26.04
2018-07-13T10:57:31.265Z,26.17
2018-07-13T10:58:31.340Z,26.23
2018-07-13T10:59:31.402Z,26.09
2018-07-13T11:00:31.471Z,25.93
2018-07-13T11:01:31.544Z,25.71
2018-07-13T11:02:31.607Z,25.63
2018-07-13T11:03:31.675Z,25.53
2018-07-13T11:04:31.746Z,25.57
2018-07-13T11:05:31.812Z,25.56
2018-07-13T11:06:31.882Z,25.64
2018-07-13T11:07:31.946Z,25.72
2018-07-13T11:08:32.014Z,25.61
2018-07-13T11:09:32.082Z,25.46
2018-07-13T11:10:32.151Z,25.35
2018-07-13T11:11:32.214Z,25.39
2018-07-13T11:12:32.283Z,25.42
2018-07-13T11:13:32.361Z,25.39
2018-07-13T11:14:32.415Z,25.45
2018-07-13T11:15:32.483Z,25.67
2018-07-13T11:16:32.549Z,25.72
2018-07-13T11:17:32.615Z,25.69
2018-07-13T11:18:32.680Z,25.67
2018-07-13T11:19:32.746Z,25.64
2018-07-13T11:20:32.813Z,25.76
2018-07-13T11:21:32.880Z,25.94
2018-07-13T11:22:32.946Z,26.12
2018-07-13T11:23:33.012Z,26.19
2018-07-13T11:24:33.080Z,26.08
2018-07-13T11:25:33.146Z,26.13
2018-07-13T11:26:33.211Z,26.34
2018-07-13T11:27:33.277Z,26.17
2018-07-13T11:28:33.345Z,26.31
2018-07-13T11:29:33.411Z,26.35
2018-07-13T11:30:33.477Z,26.16
2018-07-13T11:31:33.545Z,25.66
2018-07-13T11:32:33.610Z,25.45
2018-07-13T11:33:33.677Z,25.42
2018-07-13T11:34:33.743Z,25.27
2018-07-13T11:35:33.809Z,25.29
2018-07-13T11:36:33.876Z,25.35
2018-07-13T11:37:33.943Z,25.36
2018-07-13T11:38:34.008Z,25.35
2018-07-13T11:39:34.076Z,25.36
2018-07-13T11:40:34.141Z,25.34
2018-07-13T11:41:34.207Z,25.41
2018-07-13T11:42:34.272Z,25.44
2018-07-13T11:43:34.338Z,25.57
2018-07-13T11:44:34.405Z,25.56
2018-07-13T11:45:34.470Z,25.72
2018-07-13T11:46:34.535Z,25.67
2018-07-13T11:47:34.601Z,25.76
2018-07-13T11:48:34.669Z,25.81
2018-07-13T11:49:34.733Z,25.67
2018-07-13T11:50:34.797Z,25.71
2018-07-13T11:51:34.864Z,25.63
2018-07-13T11:52:34.944Z,25.63
2018-07-13T11:53:34.995Z,25.57
2018-07-13T11:54:35.061Z,25.69
2018-07-13T11:55:35.127Z,25.79
2018-07-13T11:56:35.196Z,25.83
2018-07-13T11:57:35.259Z,25.83
2018-07-13T11:58:35.334Z,25.83
2018-07-13T11:59:35.391Z,25.74
2018-07-13T12:00:35.542Z,25.67
2018-07-13T12:01:35.529Z,25.67
2018-07-13T12:02:35.591Z,25.54
2018-07-13T12:03:35.657Z,25.53
2018-07-13T12:04:35.721Z,25.60
2018-07-13T12:05:35.787Z,25.57
2018-07-13T12:06:35.851Z,25.66
2018-07-13T12:07:36.001Z,25.76
2018-07-13T12:08:35.983Z,25.82
2018-07-13T12:09:36.050Z,25.81
2018-07-13T12:10:36.115Z,25.82
2018-07-13T12:11:36.181Z,25.79
2018-07-13T12:12:36.260Z,25.76
2018-07-13T12:13:36.314Z,25.71
2018-07-13T12:14:36.379Z,25.82
2018-07-13T12:15:36.445Z,25.82
2018-07-13T12:16:36.532Z,25.85
2018-07-13T12:17:36.590Z,25.81
2018-07-13T12:18:36.642Z,25.51
2018-07-13T12:19:36.708Z,25.56
2018-07-13T12:20:36.773Z,25.57
2018-07-13T12:21:36.839Z,25.36
2018-07-13T12:22:36.908Z,25.27
2018-07-13T12:23:36.975Z,25.27
2018-07-13T12:24:37.036Z,25.41
2018-07-13T12:25:37.252Z,25.44
2018-07-13T12:26:37.166Z,25.27
2018-07-13T12:27:37.234Z,25.45
2018-07-13T12:28:37.300Z,25.66
2018-07-13T12:29:37.364Z,25.69
2018-07-13T12:30:37.428Z,25.71
2018-07-13T12:31:37.495Z,25.42
2018-07-13T12:32:37.560Z,25.39
2018-07-13T12:33:37.626Z,25.38
2018-07-13T12:34:37.690Z,25.49
2018-07-13T12:35:37.755Z,25.42
2018-07-13T12:36:37.827Z,25.38
2018-07-13T12:37:37.887Z,25.48
2018-07-13T12:38:37.952Z,25.57
2018-07-13T12:39:38.038Z,25.71
2018-07-13T12:40:38.084Z,25.81
2018-07-13T12:41:38.150Z,25.69
2018-07-13T12:42:38.213Z,25.72
2018-07-13T12:43:38.282Z,25.67
2018-07-13T12:44:38.345Z,25.41
2018-07-13T12:45:38.411Z,25.38
2018-07-13T12:46:38.476Z,25.46
2018-07-13T12:47:38.542Z,25.51
2018-07-13T12:48:38.606Z,25.35
2018-07-13T12:49:38.673Z,25.41
2018-07-13T12:50:38.739Z,25.42
2018-07-13T12:51:38.835Z,25.17
2018-07-13T12:52:38.884Z,24.83
2018-07-13T12:53:38.937Z,24.67
2018-07-13T12:54:39.016Z,24.97